sensor_id;sensor_type;location;lat;lon;timestamp;P1;durP1;ratioP1;P2;durP2;ratioP2
29210;SDS011;16250;49.932;10.980;2023-05-07T00:00:39;18.98;;;17.88;;
29210;SDS011;16250;49.932;10.980;2023-05-07T00:03:05;17.35;;;16.25;;
29210;SDS011;16250;49.932;10.980;2023-05-07T00:05:31;18.58;;;17.50;;
29210;SDS011;16250;49.932;10.980;2023-05-07T00:07:57;18.27;;;17.08;;
29210;SDS011;16250;49.932;10.980;2023-05-07T00:10:22;15.95;;;14.95;;
29210;SDS011;16250;49.932;10.980;2023-05-07T00:12:47;15.23;;;14.02;;
29210;SDS011;16250;49.932;10.980;2023-05-07T00:15:13;20.23;;;19.02;;
29210;SDS011;16250;49.932;10.980;2023-05-07T00:17:38;13.25;;;12.30;;
29210;SDS011;16250;49.932;10.980;2023-05-07T00:20:04;12.93;;;12.13;;
29210;SDS011;16250;49.932;10.980;2023-05-07T00:22:30;12.90;;;12.00;;
29210;SDS011;16250;49.932;10.980;2023-05-07T00:24:57;11.75;;;10.82;;
29210;SDS011;16250;49.932;10.980;2023-05-07T00:27:22;14.00;;;13.00;;
29210;SDS011;16250;49.932;10.980;2023-05-07T00:29:48;18.83;;;17.52;;
29210;SDS011;16250;49.932;10.980;2023-05-07T00:32:13;18.52;;;17.33;;
29210;SDS011;16250;49.932;10.980;2023-05-07T00:34:39;14.40;;;13.20;;
29210;SDS011;16250;49.932;10.980;2023-05-07T00:37:05;13.38;;;12.07;;
29210;SDS011;16250;49.932;10.980;2023-05-07T00:39:32;14.52;;;13.57;;
29210;SDS011;16250;49.932;10.980;2023-05-07T00:41:58;12.93;;;11.93;;
29210;SDS011;16250;49.932;10.980;2023-05-07T00:44:24;12.00;;;11.00;;
29210;SDS011;16250;49.932;10.980;2023-05-07T00:46:49;10.73;;;9.85;;
29210;SDS011;16250;49.932;10.980;2023-05-07T00:49:15;12.50;;;11.27;;
29210;SDS011;16250;49.932;10.980;2023-05-07T00:51:40;12.13;;;11.23;;
29210;SDS011;16250;49.932;10.980;2023-05-07T00:54:06;9.18;;;8.43;;
29210;SDS011;16250;49.932;10.980;2023-05-07T00:56:31;8.63;;;7.93;;
29210;SDS011;16250;49.932;10.980;2023-05-07T00:58:57;9.18;;;8.38;;
29210;SDS011;16250;49.932;10.980;2023-05-07T01:01:22;10.15;;;9.13;;
29210;SDS011;16250;49.932;10.980;2023-05-07T01:03:48;9.57;;;8.77;;
29210;SDS011;16250;49.932;10.980;2023-05-07T01:06:13;10.02;;;9.13;;
29210;SDS011;16250;49.932;10.980;2023-05-07T01:08:41;9.77;;;9.07;;
29210;SDS011;16250;49.932;10.980;2023-05-07T01:11:07;10.73;;;9.93;;
29210;SDS011;16250;49.932;10.980;2023-05-07T01:13:33;10.45;;;9.60;;
29210;SDS011;16250;49.932;10.980;2023-05-07T01:16:00;10.48;;;9.57;;
29210;SDS011;16250;49.932;10.980;2023-05-07T01:18:26;10.45;;;9.55;;
29210;SDS011;16250;49.932;10.980;2023-05-07T01:20:52;11.93;;;10.73;;
29210;SDS011;16250;49.932;10.980;2023-05-07T01:23:17;11.65;;;10.75;;
29210;SDS011;16250;49.932;10.980;2023-05-07T01:25:43;14.80;;;13.57;;
29210;SDS011;16250;49.932;10.980;2023-05-07T01:28:10;19.77;;;18.52;;
29210;SDS011;16250;49.932;10.980;2023-05-07T01:30:38;14.30;;;13.02;;
29210;SDS011;16250;49.932;10.980;2023-05-07T01:33:11;14.25;;;13.15;;
29210;SDS011;16250;49.932;10.980;2023-05-07T01:35:40;14.57;;;13.57;;
29210;SDS011;16250;49.932;10.980;2023-05-07T01:38:07;11.57;;;10.57;;
29210;SDS011;16250;49.932;10.980;2023-05-07T01:40:33;10.95;;;10.15;;
29210;SDS011;16250;49.932;10.980;2023-05-07T01:43:00;12.05;;;11.07;;
29210;SDS011;16250;49.932;10.980;2023-05-07T01:45:27;9.20;;;8.50;;
29210;SDS011;16250;49.932;10.980;2023-05-07T01:47:52;10.20;;;9.35;;
29210;SDS011;16250;49.932;10.980;2023-05-07T01:50:18;9.95;;;9.05;;
29210;SDS011;16250;49.932;10.980;2023-05-07T01:52:44;10.05;;;9.25;;
29210;SDS011;16250;49.932;10.980;2023-05-07T01:55:09;12.27;;;11.38;;
29210;SDS011;16250;49.932;10.980;2023-05-07T01:57:35;14.07;;;12.98;;
29210;SDS011;16250;49.932;10.980;2023-05-07T02:00:00;14.32;;;13.23;;
29210;SDS011;16250;49.932;10.980;2023-05-07T02:02:27;12.63;;;11.80;;
29210;SDS011;16250;49.932;10.980;2023-05-07T02:04:56;13.35;;;12.45;;
29210;SDS011;16250;49.932;10.980;2023-05-07T02:07:22;13.60;;;12.65;;
29210;SDS011;16250;49.932;10.980;2023-05-07T02:09:47;13.02;;;11.88;;
29210;SDS011;16250;49.932;10.980;2023-05-07T02:12:13;15.45;;;14.35;;
29210;SDS011;16250;49.932;10.980;2023-05-07T02:14:39;16.05;;;14.85;;
29210;SDS011;16250;49.932;10.980;2023-05-07T02:17:05;18.55;;;17.13;;
29210;SDS011;16250;49.932;10.980;2023-05-07T02:19:31;15.05;;;14.00;;
29210;SDS011;16250;49.932;10.980;2023-05-07T02:21:56;12.80;;;11.80;;
29210;SDS011;16250;49.932;10.980;2023-05-07T02:24:21;11.07;;;10.07;;
29210;SDS011;16250;49.932;10.980;2023-05-07T02:26:47;14.20;;;13.27;;
29210;SDS011;16250;49.932;10.980;2023-05-07T02:29:12;17.50;;;16.48;;
29210;SDS011;16250;49.932;10.980;2023-05-07T02:31:39;16.77;;;15.63;;
29210;SDS011;16250;49.932;10.980;2023-05-07T02:34:04;14.68;;;13.68;;
29210;SDS011;16250;49.932;10.980;2023-05-07T02:36:30;13.43;;;12.30;;
29210;SDS011;16250;49.932;10.980;2023-05-07T02:39:05;17.45;;;16.25;;
29210;SDS011;16250;49.932;10.980;2023-05-07T02:41:30;22.25;;;20.98;;
29210;SDS011;16250;49.932;10.980;2023-05-07T02:43:55;20.58;;;19.15;;
29210;SDS011;16250;49.932;10.980;2023-05-07T02:46:21;19.80;;;18.50;;
29210;SDS011;16250;49.932;10.980;2023-05-07T02:48:53;19.00;;;17.52;;
29210;SDS011;16250;49.932;10.980;2023-05-07T02:51:19;12.82;;;11.80;;
29210;SDS011;16250;49.932;10.980;2023-05-07T02:53:45;12.05;;;10.95;;
29210;SDS011;16250;49.932;10.980;2023-05-07T02:56:11;11.88;;;10.88;;
29210;SDS011;16250;49.932;10.980;2023-05-07T02:58:37;13.40;;;12.30;;
29210;SDS011;16250;49.932;10.980;2023-05-07T03:01:04;14.55;;;13.50;;
29210;SDS011;16250;49.932;10.980;2023-05-07T03:03:38;16.10;;;15.10;;
29210;SDS011;16250;49.932;10.980;2023-05-07T03:06:03;17.63;;;16.42;;
29210;SDS011;16250;49.932;10.980;2023-05-07T03:08:29;20.45;;;19.00;;
29210;SDS011;16250;49.932;10.980;2023-05-07T03:10:55;18.95;;;17.55;;
29210;SDS011;16250;49.932;10.980;2023-05-07T03:13:20;20.02;;;18.67;;
29210;SDS011;16250;49.932;10.980;2023-05-07T03:15:47;20.60;;;19.30;;
29210;SDS011;16250;49.932;10.980;2023-05-07T03:18:12;19.38;;;18.08;;
29210;SDS011;16250;49.932;10.980;2023-05-07T03:20:38;22.75;;;21.30;;
29210;SDS011;16250;49.932;10.980;2023-05-07T03:23:03;25.75;;;24.15;;
29210;SDS011;16250;49.932;10.980;2023-05-07T03:25:29;26.02;;;24.33;;
29210;SDS011;16250;49.932;10.980;2023-05-07T03:27:57;22.55;;;21.23;;
29210;SDS011;16250;49.932;10.980;2023-05-07T03:30:26;20.77;;;19.33;;
29210;SDS011;16250;49.932;10.980;2023-05-07T03:32:52;22.52;;;20.75;;
29210;SDS011;16250;49.932;10.980;2023-05-07T03:35:18;23.55;;;21.95;;
29210;SDS011;16250;49.932;10.980;2023-05-07T03:37:44;25.38;;;23.63;;
29210;SDS011;16250;49.932;10.980;2023-05-07T03:40:11;31.00;;;29.20;;
29210;SDS011;16250;49.932;10.980;2023-05-07T03:42:43;30.88;;;28.88;;
29210;SDS011;16250;49.932;10.980;2023-05-07T03:45:10;34.10;;;32.15;;
29210;SDS011;16250;49.932;10.980;2023-05-07T03:47:38;38.75;;;36.55;;
29210;SDS011;16250;49.932;10.980;2023-05-07T03:50:05;38.30;;;36.10;;
29210;SDS011;16250;49.932;10.980;2023-05-07T03:52:30;38.15;;;35.90;;
29210;SDS011;16250;49.932;10.980;2023-05-07T03:54:59;42.97;;;40.58;;
29210;SDS011;16250;49.932;10.980;2023-05-07T03:57:25;41.85;;;39.35;;
29210;SDS011;16250;49.932;10.980;2023-05-07T03:59:51;41.03;;;38.75;;
29210;SDS011;16250;49.932;10.980;2023-05-07T04:02:17;38.67;;;36.45;;
29210;SDS011;16250;49.932;10.980;2023-05-07T04:04:42;35.60;;;33.47;;
29210;SDS011;16250;49.932;10.980;2023-05-07T04:07:08;39.95;;;37.58;;
29210;SDS011;16250;49.932;10.980;2023-05-07T04:09:38;45.17;;;42.72;;
29210;SDS011;16250;49.932;10.980;2023-05-07T04:12:04;45.58;;;42.88;;
29210;SDS011;16250;49.932;10.980;2023-05-07T04:14:30;48.60;;;45.90;;
29210;SDS011;16250;49.932;10.980;2023-05-07T04:17:00;50.03;;;47.15;;
29210;SDS011;16250;49.932;10.980;2023-05-07T04:19:27;49.60;;;46.85;;
29210;SDS011;16250;49.932;10.980;2023-05-07T04:21:53;47.78;;;45.25;;
29210;SDS011;16250;49.932;10.980;2023-05-07T04:24:19;54.05;;;51.05;;
29210;SDS011;16250;49.932;10.980;2023-05-07T04:26:45;55.53;;;52.22;;
29210;SDS011;16250;49.932;10.980;2023-05-07T04:29:11;49.65;;;46.75;;
29210;SDS011;16250;49.932;10.980;2023-05-07T04:31:36;52.25;;;49.35;;
29210;SDS011;16250;49.932;10.980;2023-05-07T04:34:02;49.92;;;47.22;;
29210;SDS011;16250;49.932;10.980;2023-05-07T04:36:27;47.63;;;45.13;;
29210;SDS011;16250;49.932;10.980;2023-05-07T04:38:58;49.95;;;47.25;;
29210;SDS011;16250;49.932;10.980;2023-05-07T04:41:24;53.17;;;50.33;;
29210;SDS011;16250;49.932;10.980;2023-05-07T04:43:50;51.78;;;48.90;;
29210;SDS011;16250;49.932;10.980;2023-05-07T04:46:19;43.70;;;41.13;;
29210;SDS011;16250;49.932;10.980;2023-05-07T04:48:44;45.13;;;42.58;;
29210;SDS011;16250;49.932;10.980;2023-05-07T04:51:10;44.95;;;42.33;;
29210;SDS011;16250;49.932;10.980;2023-05-07T04:53:37;35.03;;;33.03;;
29210;SDS011;16250;49.932;10.980;2023-05-07T04:56:02;37.22;;;35.13;;
29210;SDS011;16250;49.932;10.980;2023-05-07T04:58:39;38.33;;;36.13;;
29210;SDS011;16250;49.932;10.980;2023-05-07T05:01:04;30.55;;;28.40;;
29210;SDS011;16250;49.932;10.980;2023-05-07T05:03:30;32.47;;;30.48;;
29210;SDS011;16250;49.932;10.980;2023-05-07T05:05:56;27.77;;;25.98;;
29210;SDS011;16250;49.932;10.980;2023-05-07T05:08:25;31.23;;;29.02;;
29210;SDS011;16250;49.932;10.980;2023-05-07T05:10:50;30.67;;;28.65;;
29210;SDS011;16250;49.932;10.980;2023-05-07T05:13:16;30.58;;;28.55;;
29210;SDS011;16250;49.932;10.980;2023-05-07T05:15:41;27.50;;;25.45;;
29210;SDS011;16250;49.932;10.980;2023-05-07T05:18:07;32.92;;;30.83;;
29210;SDS011;16250;49.932;10.980;2023-05-07T05:20:33;30.50;;;28.40;;
29210;SDS011;16250;49.932;10.980;2023-05-07T05:22:58;27.95;;;25.80;;
29210;SDS011;16250;49.932;10.980;2023-05-07T05:25:24;28.35;;;26.52;;
29210;SDS011;16250;49.932;10.980;2023-05-07T05:27:50;28.17;;;26.17;;
29210;SDS011;16250;49.932;10.980;2023-05-07T05:30:15;24.80;;;23.00;;
29210;SDS011;16250;49.932;10.980;2023-05-07T05:32:45;18.65;;;17.02;;
29210;SDS011;16250;49.932;10.980;2023-05-07T05:35:11;18.58;;;17.08;;
29210;SDS011;16250;49.932;10.980;2023-05-07T05:37:38;18.00;;;16.33;;
29210;SDS011;16250;49.932;10.980;2023-05-07T05:40:05;17.13;;;15.52;;
29210;SDS011;16250;49.932;10.980;2023-05-07T05:42:31;17.08;;;15.55;;
29210;SDS011;16250;49.932;10.980;2023-05-07T05:44:56;17.10;;;15.38;;
29210;SDS011;16250;49.932;10.980;2023-05-07T05:47:22;16.65;;;14.85;;
29210;SDS011;16250;49.932;10.980;2023-05-07T05:49:48;19.05;;;17.48;;
29210;SDS011;16250;49.932;10.980;2023-05-07T05:52:15;20.10;;;18.10;;
29210;SDS011;16250;49.932;10.980;2023-05-07T05:54:42;22.85;;;20.75;;
29210;SDS011;16250;49.932;10.980;2023-05-07T05:57:07;18.25;;;16.85;;
29210;SDS011;16250;49.932;10.980;2023-05-07T05:59:33;17.33;;;15.93;;
29210;SDS011;16250;49.932;10.980;2023-05-07T06:01:58;17.85;;;16.45;;
29210;SDS011;16250;49.932;10.980;2023-05-07T06:04:24;18.65;;;17.17;;
29210;SDS011;16250;49.932;10.980;2023-05-07T06:06:49;16.52;;;15.02;;
29210;SDS011;16250;49.932;10.980;2023-05-07T06:09:15;16.25;;;14.85;;
29210;SDS011;16250;49.932;10.980;2023-05-07T06:11:43;15.85;;;14.35;;
29210;SDS011;16250;49.932;10.980;2023-05-07T06:14:09;16.98;;;15.48;;
29210;SDS011;16250;49.932;10.980;2023-05-07T06:16:35;16.83;;;15.18;;
29210;SDS011;16250;49.932;10.980;2023-05-07T06:19:04;16.52;;;15.23;;
29210;SDS011;16250;49.932;10.980;2023-05-07T06:21:30;15.93;;;14.30;;
29210;SDS011;16250;49.932;10.980;2023-05-07T06:23:56;14.43;;;13.13;;
29210;SDS011;16250;49.932;10.980;2023-05-07T06:26:21;14.20;;;12.90;;
29210;SDS011;16250;49.932;10.980;2023-05-07T06:28:47;14.88;;;13.55;;
29210;SDS011;16250;49.932;10.980;2023-05-07T06:31:17;14.25;;;13.05;;
29210;SDS011;16250;49.932;10.980;2023-05-07T06:33:53;14.50;;;13.05;;
29210;SDS011;16250;49.932;10.980;2023-05-07T06:36:20;13.27;;;11.95;;
29210;SDS011;16250;49.932;10.980;2023-05-07T06:38:46;13.13;;;11.93;;
29210;SDS011;16250;49.932;10.980;2023-05-07T06:41:11;13.65;;;12.35;;
29210;SDS011;16250;49.932;10.980;2023-05-07T06:43:37;12.18;;;11.07;;
29210;SDS011;16250;49.932;10.980;2023-05-07T06:46:22;14.38;;;10.65;;
29210;SDS011;16250;49.932;10.980;2023-05-07T06:48:48;11.27;;;10.23;;
29210;SDS011;16250;49.932;10.980;2023-05-07T06:51:13;11.55;;;10.45;;
29210;SDS011;16250;49.932;10.980;2023-05-07T06:53:39;11.73;;;10.52;;
29210;SDS011;16250;49.932;10.980;2023-05-07T06:56:07;11.88;;;10.60;;
29210;SDS011;16250;49.932;10.980;2023-05-07T06:58:32;11.50;;;10.35;;
29210;SDS011;16250;49.932;10.980;2023-05-07T07:00:59;11.70;;;10.60;;
29210;SDS011;16250;49.932;10.980;2023-05-07T07:03:24;11.95;;;10.70;;
29210;SDS011;16250;49.932;10.980;2023-05-07T07:05:54;11.93;;;10.82;;
29210;SDS011;16250;49.932;10.980;2023-05-07T07:08:20;11.02;;;10.02;;
29210;SDS011;16250;49.932;10.980;2023-05-07T07:10:46;11.40;;;10.32;;
29210;SDS011;16250;49.932;10.980;2023-05-07T07:13:12;12.05;;;10.85;;
29210;SDS011;16250;49.932;10.980;2023-05-07T07:15:38;10.57;;;9.63;;
29210;SDS011;16250;49.932;10.980;2023-05-07T07:18:04;11.10;;;10.18;;
29210;SDS011;16250;49.932;10.980;2023-05-07T07:20:29;11.50;;;10.40;;
29210;SDS011;16250;49.932;10.980;2023-05-07T07:22:55;10.80;;;9.70;;
29210;SDS011;16250;49.932;10.980;2023-05-07T07:25:20;11.45;;;10.35;;
29210;SDS011;16250;49.932;10.980;2023-05-07T07:27:46;11.38;;;10.30;;
29210;SDS011;16250;49.932;10.980;2023-05-07T07:30:13;12.65;;;11.35;;
29210;SDS011;16250;49.932;10.980;2023-05-07T07:32:41;11.45;;;9.82;;
29210;SDS011;16250;49.932;10.980;2023-05-07T07:35:07;11.13;;;10.02;;
29210;SDS011;16250;49.932;10.980;2023-05-07T07:37:34;10.73;;;9.73;;
29210;SDS011;16250;49.932;10.980;2023-05-07T07:40:00;10.88;;;9.38;;
29210;SDS011;16250;49.932;10.980;2023-05-07T07:42:25;10.98;;;9.98;;
29210;SDS011;16250;49.932;10.980;2023-05-07T07:44:50;10.25;;;9.25;;
29210;SDS011;16250;49.932;10.980;2023-05-07T07:47:21;10.02;;;9.02;;
29210;SDS011;16250;49.932;10.980;2023-05-07T07:49:48;10.95;;;9.65;;
29210;SDS011;16250;49.932;10.980;2023-05-07T07:52:14;10.57;;;9.35;;
29210;SDS011;16250;49.932;10.980;2023-05-07T07:54:40;10.40;;;9.13;;
29210;SDS011;16250;49.932;10.980;2023-05-07T07:57:06;10.48;;;8.98;;
29210;SDS011;16250;49.932;10.980;2023-05-07T07:59:33;9.45;;;8.55;;
29210;SDS011;16250;49.932;10.980;2023-05-07T08:01:58;10.05;;;9.05;;
29210;SDS011;16250;49.932;10.980;2023-05-07T08:04:26;10.52;;;8.95;;
29210;SDS011;16250;49.932;10.980;2023-05-07T08:06:54;9.98;;;8.98;;
29210;SDS011;16250;49.932;10.980;2023-05-07T08:09:20;9.93;;;8.60;;
29210;SDS011;16250;49.932;10.980;2023-05-07T08:11:47;11.27;;;9.70;;
29210;SDS011;16250;49.932;10.980;2023-05-07T08:14:12;9.43;;;8.52;;
29210;SDS011;16250;49.932;10.980;2023-05-07T08:16:38;9.70;;;8.70;;
29210;SDS011;16250;49.932;10.980;2023-05-07T08:19:04;10.80;;;8.80;;
29210;SDS011;16250;49.932;10.980;2023-05-07T08:21:29;9.70;;;8.10;;
29210;SDS011;16250;49.932;10.980;2023-05-07T08:23:56;9.40;;;8.13;;
29210;SDS011;16250;49.932;10.980;2023-05-07T08:26:21;10.27;;;8.48;;
29210;SDS011;16250;49.932;10.980;2023-05-07T08:28:47;9.75;;;8.20;;
29210;SDS011;16250;49.932;10.980;2023-05-07T08:31:12;8.65;;;7.82;;
29210;SDS011;16250;49.932;10.980;2023-05-07T08:33:40;8.80;;;7.93;;
29210;SDS011;16250;49.932;10.980;2023-05-07T08:36:05;9.38;;;7.50;;
29210;SDS011;16250;49.932;10.980;2023-05-07T08:38:32;7.70;;;7.00;;
29210;SDS011;16250;49.932;10.980;2023-05-07T08:40:58;8.40;;;7.57;;
29210;SDS011;16250;49.932;10.980;2023-05-07T08:43:25;8.38;;;7.50;;
29210;SDS011;16250;49.932;10.980;2023-05-07T08:45:53;8.65;;;7.75;;
29210;SDS011;16250;49.932;10.980;2023-05-07T08:48:21;8.48;;;7.13;;
29210;SDS011;16250;49.932;10.980;2023-05-07T08:50:54;8.45;;;7.63;;
29210;SDS011;16250;49.932;10.980;2023-05-07T08:53:20;8.55;;;7.75;;
29210;SDS011;16250;49.932;10.980;2023-05-07T08:55:46;10.23;;;7.15;;
29210;SDS011;16250;49.932;10.980;2023-05-07T08:58:12;10.18;;;7.70;;
29210;SDS011;16250;49.932;10.980;2023-05-07T09:00:39;9.50;;;7.63;;
29210;SDS011;16250;49.932;10.980;2023-05-07T09:03:05;9.85;;;7.90;;
29210;SDS011;16250;49.932;10.980;2023-05-07T09:05:31;10.07;;;8.27;;
29210;SDS011;16250;49.932;10.980;2023-05-07T09:08:02;8.40;;;7.40;;
29210;SDS011;16250;49.932;10.980;2023-05-07T09:10:29;8.65;;;6.55;;
29210;SDS011;16250;49.932;10.980;2023-05-07T09:12:55;7.82;;;6.88;;
29210;SDS011;16250;49.932;10.980;2023-05-07T09:15:20;8.20;;;7.40;;
29210;SDS011;16250;49.932;10.980;2023-05-07T09:17:46;8.30;;;6.45;;
29210;SDS011;16250;49.932;10.980;2023-05-07T09:20:12;7.57;;;6.82;;
29210;SDS011;16250;49.932;10.980;2023-05-07T09:22:39;7.50;;;6.80;;
29210;SDS011;16250;49.932;10.980;2023-05-07T09:25:08;7.60;;;6.88;;
29210;SDS011;16250;49.932;10.980;2023-05-07T09:27:35;9.18;;;6.75;;
29210;SDS011;16250;49.932;10.980;2023-05-07T09:30:05;7.47;;;6.00;;
29210;SDS011;16250;49.932;10.980;2023-05-07T09:32:36;7.55;;;6.80;;
29210;SDS011;16250;49.932;10.980;2023-05-07T09:35:13;7.30;;;6.60;;
29210;SDS011;16250;49.932;10.980;2023-05-07T09:37:40;8.35;;;6.90;;
29210;SDS011;16250;49.932;10.980;2023-05-07T09:40:06;7.18;;;6.47;;
29210;SDS011;16250;49.932;10.980;2023-05-07T09:42:32;7.78;;;6.82;;
29210;SDS011;16250;49.932;10.980;2023-05-07T09:45:01;7.13;;;6.30;;
29210;SDS011;16250;49.932;10.980;2023-05-07T09:47:32;7.32;;;6.63;;
29210;SDS011;16250;49.932;10.980;2023-05-07T09:50:00;7.28;;;6.53;;
29210;SDS011;16250;49.932;10.980;2023-05-07T09:52:31;7.70;;;6.72;;
29210;SDS011;16250;49.932;10.980;2023-05-07T09:55:00;7.05;;;5.70;;
29210;SDS011;16250;49.932;10.980;2023-05-07T09:57:29;6.93;;;6.32;;
29210;SDS011;16250;49.932;10.980;2023-05-07T09:59:59;7.53;;;6.72;;
29210;SDS011;16250;49.932;10.980;2023-05-07T10:02:28;6.97;;;5.97;;
29210;SDS011;16250;49.932;10.980;2023-05-07T10:04:56;8.07;;;5.68;;
29210;SDS011;16250;49.932;10.980;2023-05-07T10:07:26;6.95;;;6.25;;
29210;SDS011;16250;49.932;10.980;2023-05-07T10:09:56;5.63;;;4.97;;
29210;SDS011;16250;49.932;10.980;2023-05-07T10:12:42;6.43;;;4.72;;
29210;SDS011;16250;49.932;10.980;2023-05-07T10:15:14;7.32;;;5.57;;
29210;SDS011;16250;49.932;10.980;2023-05-07T10:17:43;6.93;;;5.95;;
29210;SDS011;16250;49.932;10.980;2023-05-07T10:20:10;6.13;;;5.50;;
29210;SDS011;16250;49.932;10.980;2023-05-07T10:22:43;7.40;;;6.40;;
29210;SDS011;16250;49.932;10.980;2023-05-07T10:25:14;6.95;;;5.57;;
29210;SDS011;16250;49.932;10.980;2023-05-07T10:27:43;5.63;;;5.13;;
29210;SDS011;16250;49.932;10.980;2023-05-07T10:30:17;5.78;;;5.07;;
29210;SDS011;16250;49.932;10.980;2023-05-07T10:33:00;5.38;;;4.88;;
29210;SDS011;16250;49.932;10.980;2023-05-07T10:35:38;5.40;;;4.90;;
29210;SDS011;16250;49.932;10.980;2023-05-07T10:40:35;7.93;;;5.40;;
29210;SDS011;16250;49.932;10.980;2023-05-07T10:43:02;6.03;;;5.40;;
29210;SDS011;16250;49.932;10.980;2023-05-07T10:50:36;5.10;;;4.53;;
29210;SDS011;16250;49.932;10.980;2023-05-07T10:58:46;7.57;;;4.75;;
29210;SDS011;16250;49.932;10.980;2023-05-07T11:01:48;5.00;;;4.50;;
29210;SDS011;16250;49.932;10.980;2023-05-07T11:04:26;5.68;;;4.45;;
29210;SDS011;16250;49.932;10.980;2023-05-07T11:07:21;5.60;;;4.90;;
29210;SDS011;16250;49.932;10.980;2023-05-07T11:15:01;4.75;;;4.35;;
29210;SDS011;16250;49.932;10.980;2023-05-07T11:17:33;5.53;;;3.95;;
29210;SDS011;16250;49.932;10.980;2023-05-07T11:20:03;3.90;;;3.60;;
29210;SDS011;16250;49.932;10.980;2023-05-07T11:22:36;5.07;;;4.25;;
29210;SDS011;16250;49.932;10.980;2023-05-07T11:25:19;6.25;;;4.00;;
29210;SDS011;16250;49.932;10.980;2023-05-07T11:27:49;6.18;;;3.80;;
29210;SDS011;16250;49.932;10.980;2023-05-07T11:30:18;5.68;;;4.35;;
29210;SDS011;16250;49.932;10.980;2023-05-07T11:32:44;4.93;;;3.78;;
29210;SDS011;16250;49.932;10.980;2023-05-07T11:35:12;6.10;;;5.50;;
29210;SDS011;16250;49.932;10.980;2023-05-07T11:37:39;6.00;;;4.80;;
29210;SDS011;16250;49.932;10.980;2023-05-07T11:40:05;5.57;;;5.03;;
29210;SDS011;16250;49.932;10.980;2023-05-07T11:42:37;5.68;;;4.72;;
29210;SDS011;16250;49.932;10.980;2023-05-07T11:45:04;5.72;;;4.35;;
29210;SDS011;16250;49.932;10.980;2023-05-07T11:47:30;5.10;;;4.68;;
29210;SDS011;16250;49.932;10.980;2023-05-07T11:49:56;5.15;;;4.65;;
29210;SDS011;16250;49.932;10.980;2023-05-07T11:52:22;6.90;;;4.90;;
29210;SDS011;16250;49.932;10.980;2023-05-07T11:54:49;5.72;;;5.00;;
29210;SDS011;16250;49.932;10.980;2023-05-07T11:57:15;6.43;;;4.50;;
29210;SDS011;16250;49.932;10.980;2023-05-07T11:59:40;7.13;;;6.43;;
29210;SDS011;16250;49.932;10.980;2023-05-07T12:02:06;7.03;;;6.32;;
29210;SDS011;16250;49.932;10.980;2023-05-07T12:04:32;6.10;;;5.43;;
29210;SDS011;16250;49.932;10.980;2023-05-07T12:06:58;6.10;;;5.38;;
29210;SDS011;16250;49.932;10.980;2023-05-07T12:09:23;5.72;;;5.22;;
29210;SDS011;16250;49.932;10.980;2023-05-07T12:11:48;5.30;;;4.65;;
29210;SDS011;16250;49.932;10.980;2023-05-07T12:14:14;5.53;;;5.03;;
29210;SDS011;16250;49.932;10.980;2023-05-07T12:16:41;6.32;;;5.72;;
29210;SDS011;16250;49.932;10.980;2023-05-07T12:19:06;5.50;;;5.00;;
29210;SDS011;16250;49.932;10.980;2023-05-07T12:21:34;5.50;;;4.75;;
29210;SDS011;16250;49.932;10.980;2023-05-07T12:23:59;7.18;;;5.53;;
29210;SDS011;16250;49.932;10.980;2023-05-07T12:26:25;6.60;;;5.40;;
29210;SDS011;16250;49.932;10.980;2023-05-07T12:28:51;5.78;;;5.28;;
29210;SDS011;16250;49.932;10.980;2023-05-07T12:31:16;5.57;;;5.07;;
29210;SDS011;16250;49.932;10.980;2023-05-07T12:33:42;6.43;;;5.20;;
29210;SDS011;16250;49.932;10.980;2023-05-07T12:36:08;6.10;;;5.50;;
29210;SDS011;16250;49.932;10.980;2023-05-07T12:38:37;6.20;;;5.60;;
29210;SDS011;16250;49.932;10.980;2023-05-07T12:41:03;6.22;;;5.63;;
29210;SDS011;16250;49.932;10.980;2023-05-07T12:43:29;6.05;;;5.43;;
29210;SDS011;16250;49.932;10.980;2023-05-07T12:45:55;7.43;;;5.70;;
29210;SDS011;16250;49.932;10.980;2023-05-07T12:48:30;6.80;;;5.30;;
29210;SDS011;16250;49.932;10.980;2023-05-07T12:50:56;6.20;;;5.35;;
29210;SDS011;16250;49.932;10.980;2023-05-07T12:53:23;5.57;;;5.05;;
29210;SDS011;16250;49.932;10.980;2023-05-07T12:55:53;5.72;;;5.13;;
29210;SDS011;16250;49.932;10.980;2023-05-07T12:58:22;6.70;;;5.50;;
29210;SDS011;16250;49.932;10.980;2023-05-07T13:00:50;6.35;;;5.55;;
29210;SDS011;16250;49.932;10.980;2023-05-07T13:03:23;5.22;;;4.70;;
29210;SDS011;16250;49.932;10.980;2023-05-07T13:05:50;8.50;;;5.30;;
29210;SDS011;16250;49.932;10.980;2023-05-07T13:08:26;5.60;;;5.10;;
29210;SDS011;16250;49.932;10.980;2023-05-07T13:11:02;5.28;;;4.85;;
29210;SDS011;16250;49.932;10.980;2023-05-07T13:13:32;5.65;;;4.30;;
29210;SDS011;16250;49.932;10.980;2023-05-07T13:15:58;4.97;;;4.57;;
29210;SDS011;16250;49.932;10.980;2023-05-07T13:18:24;4.68;;;4.28;;
29210;SDS011;16250;49.932;10.980;2023-05-07T13:20:50;4.68;;;4.28;;
29210;SDS011;16250;49.932;10.980;2023-05-07T13:23:16;4.45;;;4.05;;
29210;SDS011;16250;49.932;10.980;2023-05-07T13:25:41;4.25;;;3.88;;
29210;SDS011;16250;49.932;10.980;2023-05-07T13:28:07;4.63;;;4.18;;
29210;SDS011;16250;49.932;10.980;2023-05-07T13:30:32;5.68;;;4.30;;
29210;SDS011;16250;49.932;10.980;2023-05-07T13:32:57;4.60;;;4.20;;
29210;SDS011;16250;49.932;10.980;2023-05-07T13:35:23;4.53;;;4.13;;
29210;SDS011;16250;49.932;10.980;2023-05-07T13:37:48;4.60;;;4.20;;
29210;SDS011;16250;49.932;10.980;2023-05-07T13:40:14;4.80;;;4.40;;
29210;SDS011;16250;49.932;10.980;2023-05-07T13:42:40;5.03;;;4.15;;
29210;SDS011;16250;49.932;10.980;2023-05-07T13:45:06;4.78;;;3.90;;
29210;SDS011;16250;49.932;10.980;2023-05-07T13:47:32;4.13;;;3.80;;
29210;SDS011;16250;49.932;10.980;2023-05-07T13:49:57;4.35;;;3.95;;
29210;SDS011;16250;49.932;10.980;2023-05-07T13:52:23;5.10;;;4.32;;
29210;SDS011;16250;49.932;10.980;2023-05-07T13:54:48;5.15;;;4.13;;
29210;SDS011;16250;49.932;10.980;2023-05-07T13:57:13;5.55;;;4.03;;
29210;SDS011;16250;49.932;10.980;2023-05-07T13:59:40;4.63;;;4.13;;
29210;SDS011;16250;49.932;10.980;2023-05-07T14:02:05;4.68;;;4.15;;
29210;SDS011;16250;49.932;10.980;2023-05-07T14:04:31;4.82;;;3.88;;
29210;SDS011;16250;49.932;10.980;2023-05-07T14:06:56;4.70;;;4.20;;
29210;SDS011;16250;49.932;10.980;2023-05-07T14:09:21;5.47;;;4.38;;
29210;SDS011;16250;49.932;10.980;2023-05-07T14:11:47;4.72;;;4.30;;
29210;SDS011;16250;49.932;10.980;2023-05-07T14:14:16;5.82;;;4.60;;
29210;SDS011;16250;49.932;10.980;2023-05-07T14:16:42;5.20;;;4.47;;
29210;SDS011;16250;49.932;10.980;2023-05-07T14:19:07;5.65;;;4.63;;
29210;SDS011;16250;49.932;10.980;2023-05-07T14:21:32;5.70;;;4.47;;
29210;SDS011;16250;49.932;10.980;2023-05-07T14:23:58;5.78;;;4.45;;
29210;SDS011;16250;49.932;10.980;2023-05-07T14:26:24;4.35;;;3.97;;
29210;SDS011;16250;49.932;10.980;2023-05-07T14:28:52;6.32;;;4.28;;
29210;SDS011;16250;49.932;10.980;2023-05-07T14:31:17;4.22;;;3.83;;
29210;SDS011;16250;49.932;10.980;2023-05-07T14:33:43;4.45;;;4.05;;
29210;SDS011;16250;49.932;10.980;2023-05-07T14:36:08;3.75;;;3.45;;
29210;SDS011;16250;49.932;10.980;2023-05-07T14:38:33;4.05;;;3.65;;